Balladonia, Australia
Current Conditions -  °F | °C
As of 1:00 PM on Saturday 29 Nov 2014 (Local Time) from YESP Reporting Station
Broken Clouds Broken Clouds  
Wind Chill: 72°   Ceiling: 2100
Heat Index: 72°   Visibility: 6mi
Dew Point: 61°   Wind: 21mph
Humidity: 69%   Direction: 220°SW
Pressure: 29.88"   Gusts: NA
Location:  32.47°S, 123.83°E
Report Text: YESP 290500Z AUTO 22018KT 9999 // BKN021 BKN026 BKN033 22/16 Q1012
Loading
Personal Weather Stations






























Interactive Weather Map New forecast layout! Learn more

10-Day Weather Forecast

Advertisements
Track Severe Weather on mobile